sensor_id;sensor_type;location;lat;lon;timestamp;temperature;humidity
11091;DHT22;5599;52.210;21.046;2022-09-20T00:01:49;11.30;1.00
11091;DHT22;5599;52.210;21.046;2022-09-20T00:04:18;11.30;1.00
11091;DHT22;5599;52.210;21.046;2022-09-20T00:06:47;11.30;1.00
11091;DHT22;5599;52.210;21.046;2022-09-20T00:09:17;11.30;1.00
11091;DHT22;5599;52.210;21.046;2022-09-20T00:11:46;11.20;1.00
11091;DHT22;5599;52.210;21.046;2022-09-20T00:14:17;11.20;1.00
11091;DHT22;5599;52.210;21.046;2022-09-20T00:16:46;11.20;1.00
11091;DHT22;5599;52.210;21.046;2022-09-20T00:19:17;11.20;1.00
11091;DHT22;5599;52.210;21.046;2022-09-20T00:21:47;11.20;9.00
11091;DHT22;5599;52.210;21.046;2022-09-20T00:24:17;11.20;1.00
11091;DHT22;5599;52.210;21.046;2022-09-20T00:26:46;11.20;1.00
11091;DHT22;5599;52.210;21.046;2022-09-20T00:29:17;11.20;1.00
11091;DHT22;5599;52.210;21.046;2022-09-20T00:31:46;11.10;1.00
11091;DHT22;5599;52.210;21.046;2022-09-20T00:34:16;11.10;23.40
11091;DHT22;5599;52.210;21.046;2022-09-20T00:37:02;11.10;19.00
11091;DHT22;5599;52.210;21.046;2022-09-20T00:39:31;11.10;8.00
11091;DHT22;5599;52.210;21.046;2022-09-20T00:42:01;11.10;1.00
11091;DHT22;5599;52.210;21.046;2022-09-20T00:44:49;11.10;31.60
11091;DHT22;5599;52.210;21.046;2022-09-20T00:47:26;11.00;1.30
11091;DHT22;5599;52.210;21.046;2022-09-20T00:50:01;11.00;1.00
11091;DHT22;5599;52.210;21.046;2022-09-20T00:52:31;11.00;14.50
11091;DHT22;5599;52.210;21.046;2022-09-20T00:55:03;11.00;1.00
11091;DHT22;5599;52.210;21.046;2022-09-20T00:57:35;10.90;9.90
11091;DHT22;5599;52.210;21.046;2022-09-20T01:00:10;10.90;4.90
11091;DHT22;5599;52.210;21.046;2022-09-20T01:02:42;10.90;5.30
11091;DHT22;5599;52.210;21.046;2022-09-20T01:05:13;10.80;38.40
11091;DHT22;5599;52.210;21.046;2022-09-20T01:07:44;10.70;1.70
11091;DHT22;5599;52.210;21.046;2022-09-20T01:10:14;10.70;44.00
11091;DHT22;5599;52.210;21.046;2022-09-20T01:12:44;10.70;99.90
11091;DHT22;5599;52.210;21.046;2022-09-20T01:15:16;10.70;99.90
11091;DHT22;5599;52.210;21.046;2022-09-20T01:17:48;10.70;99.90
11091;DHT22;5599;52.210;21.046;2022-09-20T01:20:21;10.70;74.30
11091;DHT22;5599;52.210;21.046;2022-09-20T01:23:09;10.70;99.90
11091;DHT22;5599;52.210;21.046;2022-09-20T01:26:00;10.60;99.90
11091;DHT22;5599;52.210;21.046;2022-09-20T01:28:37;10.60;99.90
11091;DHT22;5599;52.210;21.046;2022-09-20T01:31:16;10.60;99.90
11091;DHT22;5599;52.210;21.046;2022-09-20T01:33:48;10.60;99.90
11091;DHT22;5599;52.210;21.046;2022-09-20T01:36:23;10.60;99.90
11091;DHT22;5599;52.210;21.046;2022-09-20T01:39:02;10.60;99.90
11091;DHT22;5599;52.210;21.046;2022-09-20T01:41:37;10.60;99.90
11091;DHT22;5599;52.210;21.046;2022-09-20T01:44:15;10.60;99.90
11091;DHT22;5599;52.210;21.046;2022-09-20T01:46:51;10.60;99.90
11091;DHT22;5599;52.210;21.046;2022-09-20T01:49:33;10.60;99.90
11091;DHT22;5599;52.210;21.046;2022-09-20T01:55:43;10.70;99.90
11091;DHT22;5599;52.210;21.046;2022-09-20T02:02:06;10.70;99.90
11091;DHT22;5599;52.210;21.046;2022-09-20T02:08:08;10.60;52.30
11091;DHT22;5599;52.210;21.046;2022-09-20T02:11:04;10.50;99.90
11091;DHT22;5599;52.210;21.046;2022-09-20T02:16:45;10.40;99.90
11091;DHT22;5599;52.210;21.046;2022-09-20T02:19:33;10.30;99.90
11091;DHT22;5599;52.210;21.046;2022-09-20T02:22:20;10.30;99.90
11091;DHT22;5599;52.210;21.046;2022-09-20T02:24:57;10.30;99.90
11091;DHT22;5599;52.210;21.046;2022-09-20T02:27:37;10.30;99.90
11091;DHT22;5599;52.210;21.046;2022-09-20T02:30:16;10.30;99.90
11091;DHT22;5599;52.210;21.046;2022-09-20T02:33:12;10.40;99.90
11091;DHT22;5599;52.210;21.046;2022-09-20T02:36:08;10.40;99.90
11091;DHT22;5599;52.210;21.046;2022-09-20T02:38:50;10.40;99.90
11091;DHT22;5599;52.210;21.046;2022-09-20T02:41:47;10.40;99.90
11091;DHT22;5599;52.210;21.046;2022-09-20T02:44:32;10.30;99.90
11091;DHT22;5599;52.210;21.046;2022-09-20T02:47:12;10.30;99.90
11091;DHT22;5599;52.210;21.046;2022-09-20T02:49:58;10.30;99.90
11091;DHT22;5599;52.210;21.046;2022-09-20T02:52:36;10.20;99.90
11091;DHT22;5599;52.210;21.046;2022-09-20T02:55:15;10.20;99.90
11091;DHT22;5599;52.210;21.046;2022-09-20T02:57:52;10.30;99.90
11091;DHT22;5599;52.210;21.046;2022-09-20T03:00:27;10.20;99.90
11091;DHT22;5599;52.210;21.046;2022-09-20T03:03:07;10.30;99.90
11091;DHT22;5599;52.210;21.046;2022-09-20T03:05:49;10.40;99.90
11091;DHT22;5599;52.210;21.046;2022-09-20T03:08:30;10.40;99.90
11091;DHT22;5599;52.210;21.046;2022-09-20T03:11:11;10.40;99.90
11091;DHT22;5599;52.210;21.046;2022-09-20T03:13:53;10.50;99.90
11091;DHT22;5599;52.210;21.046;2022-09-20T03:16:34;10.50;99.90
11091;DHT22;5599;52.210;21.046;2022-09-20T03:19:14;10.60;99.90
11091;DHT22;5599;52.210;21.046;2022-09-20T03:21:51;10.60;99.90
11091;DHT22;5599;52.210;21.046;2022-09-20T03:24:38;10.50;99.90
11091;DHT22;5599;52.210;21.046;2022-09-20T03:27:18;10.60;99.90
11091;DHT22;5599;52.210;21.046;2022-09-20T03:30:00;10.70;99.90
11091;DHT22;5599;52.210;21.046;2022-09-20T03:32:43;10.70;99.90
11091;DHT22;5599;52.210;21.046;2022-09-20T03:35:27;10.70;99.90
11091;DHT22;5599;52.210;21.046;2022-09-20T03:38:10;10.80;99.90
11091;DHT22;5599;52.210;21.046;2022-09-20T03:41:03;10.80;99.90
11091;DHT22;5599;52.210;21.046;2022-09-20T03:43:48;10.80;99.90
11091;DHT22;5599;52.210;21.046;2022-09-20T03:46:23;10.80;99.90
11091;DHT22;5599;52.210;21.046;2022-09-20T03:49:05;10.70;99.90
11091;DHT22;5599;52.210;21.046;2022-09-20T03:51:44;10.70;99.90
11091;DHT22;5599;52.210;21.046;2022-09-20T04:00:22;10.70;12.20
11091;DHT22;5599;52.210;21.046;2022-09-20T04:03:09;10.70;22.20
11091;DHT22;5599;52.210;21.046;2022-09-20T04:05:51;10.70;8.30
11091;DHT22;5599;52.210;21.046;2022-09-20T04:08:32;10.70;99.90
11091;DHT22;5599;52.210;21.046;2022-09-20T04:11:11;10.80;1.70
11091;DHT22;5599;52.210;21.046;2022-09-20T04:13:51;10.70;1.00
11091;DHT22;5599;52.210;21.046;2022-09-20T04:16:31;10.80;1.00
11091;DHT22;5599;52.210;21.046;2022-09-20T04:19:11;10.80;1.00
11091;DHT22;5599;52.210;21.046;2022-09-20T04:21:47;10.80;1.00
11091;DHT22;5599;52.210;21.046;2022-09-20T04:24:24;10.80;1.00
11091;DHT22;5599;52.210;21.046;2022-09-20T04:27:00;10.80;1.00
11091;DHT22;5599;52.210;21.046;2022-09-20T04:29:36;10.80;1.00
11091;DHT22;5599;52.210;21.046;2022-09-20T04:32:16;10.90;1.00
11091;DHT22;5599;52.210;21.046;2022-09-20T04:34:53;10.90;1.00
11091;DHT22;5599;52.210;21.046;2022-09-20T04:37:42;10.90;1.00
11091;DHT22;5599;52.210;21.046;2022-09-20T04:40:22;10.90;1.00
11091;DHT22;5599;52.210;21.046;2022-09-20T04:43:15;10.90;1.00
11091;DHT22;5599;52.210;21.046;2022-09-20T04:46:05;11.00;1.00
11091;DHT22;5599;52.210;21.046;2022-09-20T04:49:20;11.00;34.10
11091;DHT22;5599;52.210;21.046;2022-09-20T04:52:12;11.00;1.00
11091;DHT22;5599;52.210;21.046;2022-09-20T04:55:11;11.00;1.00
11091;DHT22;5599;52.210;21.046;2022-09-20T05:04:39;11.00;1.00
11091;DHT22;5599;52.210;21.046;2022-09-20T05:11:01;11.00;1.00
11091;DHT22;5599;52.210;21.046;2022-09-20T05:13:48;11.00;1.00
11091;DHT22;5599;52.210;21.046;2022-09-20T05:16:32;11.00;1.00
11091;DHT22;5599;52.210;21.046;2022-09-20T05:19:21;11.00;1.00
11091;DHT22;5599;52.210;21.046;2022-09-20T05:25:31;11.10;1.00
11091;DHT22;5599;52.210;21.046;2022-09-20T05:28:09;11.10;1.00
11091;DHT22;5599;52.210;21.046;2022-09-20T05:30:45;11.20;1.00
11091;DHT22;5599;52.210;21.046;2022-09-20T05:33:22;11.20;1.00
11091;DHT22;5599;52.210;21.046;2022-09-20T05:36:05;11.20;1.00
11091;DHT22;5599;52.210;21.046;2022-09-20T05:38:46;11.20;1.00
11091;DHT22;5599;52.210;21.046;2022-09-20T05:41:26;11.30;1.00
11091;DHT22;5599;52.210;21.046;2022-09-20T05:44:07;11.30;1.00
11091;DHT22;5599;52.210;21.046;2022-09-20T05:46:51;11.40;1.00
11091;DHT22;5599;52.210;21.046;2022-09-20T05:49:37;11.40;1.00
11091;DHT22;5599;52.210;21.046;2022-09-20T05:52:32;11.40;1.00
11091;DHT22;5599;52.210;21.046;2022-09-20T05:55:24;11.40;1.00
11091;DHT22;5599;52.210;21.046;2022-09-20T05:58:15;11.50;1.00
11091;DHT22;5599;52.210;21.046;2022-09-20T06:00:53;11.40;1.00
11091;DHT22;5599;52.210;21.046;2022-09-20T06:03:33;11.40;1.00
11091;DHT22;5599;52.210;21.046;2022-09-20T06:06:13;11.40;1.00
11091;DHT22;5599;52.210;21.046;2022-09-20T06:09:05;11.50;1.00
11091;DHT22;5599;52.210;21.046;2022-09-20T06:12:01;11.50;1.00
11091;DHT22;5599;52.210;21.046;2022-09-20T06:14:39;11.50;1.00
11091;DHT22;5599;52.210;21.046;2022-09-20T06:17:23;11.50;1.00
11091;DHT22;5599;52.210;21.046;2022-09-20T06:20:12;11.50;1.00
11091;DHT22;5599;52.210;21.046;2022-09-20T06:22:49;11.50;1.00
11091;DHT22;5599;52.210;21.046;2022-09-20T06:25:25;11.50;1.00
11091;DHT22;5599;52.210;21.046;2022-09-20T06:28:02;11.50;1.00
11091;DHT22;5599;52.210;21.046;2022-09-20T06:30:38;11.50;1.00
11091;DHT22;5599;52.210;21.046;2022-09-20T06:33:14;11.50;1.00
11091;DHT22;5599;52.210;21.046;2022-09-20T06:35:49;11.70;1.00
11091;DHT22;5599;52.210;21.046;2022-09-20T06:38:38;11.70;1.00
11091;DHT22;5599;52.210;21.046;2022-09-20T06:41:30;11.80;1.00
11091;DHT22;5599;52.210;21.046;2022-09-20T06:44:04;11.80;1.00
11091;DHT22;5599;52.210;21.046;2022-09-20T06:46:35;11.80;1.00
11091;DHT22;5599;52.210;21.046;2022-09-20T06:49:06;12.00;1.00
11091;DHT22;5599;52.210;21.046;2022-09-20T06:51:38;12.00;1.00
11091;DHT22;5599;52.210;21.046;2022-09-20T06:54:16;11.90;1.00
11091;DHT22;5599;52.210;21.046;2022-09-20T06:56:48;12.00;1.00
11091;DHT22;5599;52.210;21.046;2022-09-20T06:59:18;12.00;1.00
11091;DHT22;5599;52.210;21.046;2022-09-20T07:01:49;12.00;1.00
11091;DHT22;5599;52.210;21.046;2022-09-20T07:04:19;12.10;1.00
11091;DHT22;5599;52.210;21.046;2022-09-20T07:06:49;12.20;1.00
11091;DHT22;5599;52.210;21.046;2022-09-20T07:09:20;12.30;1.00
11091;DHT22;5599;52.210;21.046;2022-09-20T07:11:50;12.40;1.00
11091;DHT22;5599;52.210;21.046;2022-09-20T07:14:21;12.50;1.00
11091;DHT22;5599;52.210;21.046;2022-09-20T07:16:51;12.50;1.00
11091;DHT22;5599;52.210;21.046;2022-09-20T07:19:22;12.60;1.00
11091;DHT22;5599;52.210;21.046;2022-09-20T07:21:52;12.70;1.00
11091;DHT22;5599;52.210;21.046;2022-09-20T07:24:24;12.70;1.00
11091;DHT22;5599;52.210;21.046;2022-09-20T07:26:58;12.80;1.00
11091;DHT22;5599;52.210;21.046;2022-09-20T07:29:29;12.90;1.00
11091;DHT22;5599;52.210;21.046;2022-09-20T07:31:59;12.90;99.90
11091;DHT22;5599;52.210;21.046;2022-09-20T07:34:29;12.90;99.90
11091;DHT22;5599;52.210;21.046;2022-09-20T07:36:59;13.00;99.90
11091;DHT22;5599;52.210;21.046;2022-09-20T07:39:31;13.10;99.90
11091;DHT22;5599;52.210;21.046;2022-09-20T07:42:01;13.10;99.90
11091;DHT22;5599;52.210;21.046;2022-09-20T07:44:33;13.20;99.90
11091;DHT22;5599;52.210;21.046;2022-09-20T07:47:04;13.40;1.00
11091;DHT22;5599;52.210;21.046;2022-09-20T07:49:34;13.50;99.90
11091;DHT22;5599;52.210;21.046;2022-09-20T07:52:04;13.60;99.90
11091;DHT22;5599;52.210;21.046;2022-09-20T07:54:36;13.70;42.10
11091;DHT22;5599;52.210;21.046;2022-09-20T07:57:07;13.60;1.00
11091;DHT22;5599;52.210;21.046;2022-09-20T07:59:37;13.50;1.00
11091;DHT22;5599;52.210;21.046;2022-09-20T08:02:10;13.50;1.00
11091;DHT22;5599;52.210;21.046;2022-09-20T08:04:42;13.40;99.90
11091;DHT22;5599;52.210;21.046;2022-09-20T08:07:14;13.40;99.90
11091;DHT22;5599;52.210;21.046;2022-09-20T08:09:46;13.60;99.90
11091;DHT22;5599;52.210;21.046;2022-09-20T08:12:16;13.90;99.90
11091;DHT22;5599;52.210;21.046;2022-09-20T08:15:08;14.20;99.90
11091;DHT22;5599;52.210;21.046;2022-09-20T08:17:38;14.40;1.00
11091;DHT22;5599;52.210;21.046;2022-09-20T08:20:09;14.60;99.90
11091;DHT22;5599;52.210;21.046;2022-09-20T08:22:39;14.90;1.00
11091;DHT22;5599;52.210;21.046;2022-09-20T08:25:12;15.00;99.90
11091;DHT22;5599;52.210;21.046;2022-09-20T08:27:46;15.30;1.00
11091;DHT22;5599;52.210;21.046;2022-09-20T08:30:20;15.40;1.00
11091;DHT22;5599;52.210;21.046;2022-09-20T08:32:54;15.50;99.90
11091;DHT22;5599;52.210;21.046;2022-09-20T08:35:24;15.50;1.00
11091;DHT22;5599;52.210;21.046;2022-09-20T08:37:56;15.40;99.90
11091;DHT22;5599;52.210;21.046;2022-09-20T08:40:48;15.30;1.00
11091;DHT22;5599;52.210;21.046;2022-09-20T08:43:19;15.20;1.00
11091;DHT22;5599;52.210;21.046;2022-09-20T08:45:50;15.30;1.00
11091;DHT22;5599;52.210;21.046;2022-09-20T08:48:25;15.20;99.90
11091;DHT22;5599;52.210;21.046;2022-09-20T08:51:02;15.20;1.00
11091;DHT22;5599;52.210;21.046;2022-09-20T08:53:33;15.30;99.90
11091;DHT22;5599;52.210;21.046;2022-09-20T08:56:06;15.40;65.10
11091;DHT22;5599;52.210;21.046;2022-09-20T08:58:36;15.50;99.90
11091;DHT22;5599;52.210;21.046;2022-09-20T09:01:06;15.30;1.00
11091;DHT22;5599;52.210;21.046;2022-09-20T09:03:40;15.20;1.00
11091;DHT22;5599;52.210;21.046;2022-09-20T09:06:12;15.00;1.00
11091;DHT22;5599;52.210;21.046;2022-09-20T09:08:45;14.90;99.90
11091;DHT22;5599;52.210;21.046;2022-09-20T09:11:21;15.00;99.90
11091;DHT22;5599;52.210;21.046;2022-09-20T09:13:53;15.00;1.00
11091;DHT22;5599;52.210;21.046;2022-09-20T09:16:29;14.90;99.90
11091;DHT22;5599;52.210;21.046;2022-09-20T09:19:27;14.80;36.90
11091;DHT22;5599;52.210;21.046;2022-09-20T09:22:02;14.70;1.00
11091;DHT22;5599;52.210;21.046;2022-09-20T09:24:32;14.50;99.90
11091;DHT22;5599;52.210;21.046;2022-09-20T09:27:13;14.40;99.90
11091;DHT22;5599;52.210;21.046;2022-09-20T09:29:51;14.40;1.00
11091;DHT22;5599;52.210;21.046;2022-09-20T09:32:24;14.50;1.00
11091;DHT22;5599;52.210;21.046;2022-09-20T09:34:56;14.60;1.00
11091;DHT22;5599;52.210;21.046;2022-09-20T09:37:53;14.50;1.00
11091;DHT22;5599;52.210;21.046;2022-09-20T09:40:24;14.40;1.00
11091;DHT22;5599;52.210;21.046;2022-09-20T09:42:57;14.30;95.70
11091;DHT22;5599;52.210;21.046;2022-09-20T09:45:29;14.30;99.90
11091;DHT22;5599;52.210;21.046;2022-09-20T09:48:00;14.20;99.90
11091;DHT22;5599;52.210;21.046;2022-09-20T09:50:32;14.30;99.90
11091;DHT22;5599;52.210;21.046;2022-09-20T09:53:09;14.30;90.70
11091;DHT22;5599;52.210;21.046;2022-09-20T09:56:11;14.30;12.40
11091;DHT22;5599;52.210;21.046;2022-09-20T09:58:57;14.30;99.90
11091;DHT22;5599;52.210;21.046;2022-09-20T10:01:35;14.40;1.00
11091;DHT22;5599;52.210;21.046;2022-09-20T10:04:14;14.50;99.90
11091;DHT22;5599;52.210;21.046;2022-09-20T10:06:49;14.60;99.90
11091;DHT22;5599;52.210;21.046;2022-09-20T10:09:29;14.80;99.90
11091;DHT22;5599;52.210;21.046;2022-09-20T10:12:18;14.80;1.00
11091;DHT22;5599;52.210;21.046;2022-09-20T10:15:01;15.00;19.60
11091;DHT22;5599;52.210;21.046;2022-09-20T10:17:49;15.20;99.90
11091;DHT22;5599;52.210;21.046;2022-09-20T10:20:30;15.50;1.00
11091;DHT22;5599;52.210;21.046;2022-09-20T10:23:15;15.90;1.00
11091;DHT22;5599;52.210;21.046;2022-09-20T10:26:22;16.20;1.00
11091;DHT22;5599;52.210;21.046;2022-09-20T10:29:03;16.30;99.90
11091;DHT22;5599;52.210;21.046;2022-09-20T10:31:47;16.50;1.00
11091;DHT22;5599;52.210;21.046;2022-09-20T10:34:42;16.50;1.00
11091;DHT22;5599;52.210;21.046;2022-09-20T10:37:24;16.60;99.90
11091;DHT22;5599;52.210;21.046;2022-09-20T10:40:01;16.60;99.90
11091;DHT22;5599;52.210;21.046;2022-09-20T10:42:41;16.90;1.00
11091;DHT22;5599;52.210;21.046;2022-09-20T10:45:37;17.30;1.00
11091;DHT22;5599;52.210;21.046;2022-09-20T10:48:31;17.50;1.00
11091;DHT22;5599;52.210;21.046;2022-09-20T10:51:08;17.90;99.90
11091;DHT22;5599;52.210;21.046;2022-09-20T10:53:44;18.30;91.00
11091;DHT22;5599;52.210;21.046;2022-09-20T10:56:26;18.20;1.00
11091;DHT22;5599;52.210;21.046;2022-09-20T10:59:20;18.30;1.00
11091;DHT22;5599;52.210;21.046;2022-09-20T11:02:08;18.20;99.90
11091;DHT22;5599;52.210;21.046;2022-09-20T11:05:14;18.20;99.90
11091;DHT22;5599;52.210;21.046;2022-09-20T11:07:58;18.30;1.00
11091;DHT22;5599;52.210;21.046;2022-09-20T11:10:34;18.40;99.90
11091;DHT22;5599;52.210;21.046;2022-09-20T11:13:10;18.50;1.00
11091;DHT22;5599;52.210;21.046;2022-09-20T11:15:44;18.50;1.00
11091;DHT22;5599;52.210;21.046;2022-09-20T11:18:19;18.50;20.40
11091;DHT22;5599;52.210;21.046;2022-09-20T11:20:58;18.60;24.00
11091;DHT22;5599;52.210;21.046;2022-09-20T11:23:37;18.70;1.00
11091;DHT22;5599;52.210;21.046;2022-09-20T11:26:12;18.80;99.90
11091;DHT22;5599;52.210;21.046;2022-09-20T11:28:49;18.60;99.90
11091;DHT22;5599;52.210;21.046;2022-09-20T11:31:24;18.90;1.00
11091;DHT22;5599;52.210;21.046;2022-09-20T11:33:59;19.20;99.90
11091;DHT22;5599;52.210;21.046;2022-09-20T11:36:35;19.40;1.00
11091;DHT22;5599;52.210;21.046;2022-09-20T11:39:13;19.50;99.90
11091;DHT22;5599;52.210;21.046;2022-09-20T11:41:44;19.50;1.00
11091;DHT22;5599;52.210;21.046;2022-09-20T11:44:18;19.40;1.00
11091;DHT22;5599;52.210;21.046;2022-09-20T11:46:53;19.40;1.00
11091;DHT22;5599;52.210;21.046;2022-09-20T11:49:27;19.40;99.90
11091;DHT22;5599;52.210;21.046;2022-09-20T11:52:30;19.30;1.00
11091;DHT22;5599;52.210;21.046;2022-09-20T11:55:17;19.30;1.00
11091;DHT22;5599;52.210;21.046;2022-09-20T11:57:59;19.30;1.00
11091;DHT22;5599;52.210;21.046;2022-09-20T12:00:32;19.30;99.90
11091;DHT22;5599;52.210;21.046;2022-09-20T12:03:06;19.40;99.90
11091;DHT22;5599;52.210;21.046;2022-09-20T12:05:40;19.40;99.90
11091;DHT22;5599;52.210;21.046;2022-09-20T12:08:21;19.20;99.90
11091;DHT22;5599;52.210;21.046;2022-09-20T12:10:57;19.20;99.90
11091;DHT22;5599;52.210;21.046;2022-09-20T12:13:32;19.00;99.90
11091;DHT22;5599;52.210;21.046;2022-09-20T12:16:07;18.90;99.90
11091;DHT22;5599;52.210;21.046;2022-09-20T12:18:47;18.80;99.90
11091;DHT22;5599;52.210;21.046;2022-09-20T12:21:29;18.70;99.90
11091;DHT22;5599;52.210;21.046;2022-09-20T12:24:21;18.70;99.90
11091;DHT22;5599;52.210;21.046;2022-09-20T12:26:56;18.60;99.90
11091;DHT22;5599;52.210;21.046;2022-09-20T12:30:03;18.70;99.90
11091;DHT22;5599;52.210;21.046;2022-09-20T12:32:49;18.50;99.90
11091;DHT22;5599;52.210;21.046;2022-09-20T12:35:51;18.70;1.00
11091;DHT22;5599;52.210;21.046;2022-09-20T12:38:33;18.60;99.90
11091;DHT22;5599;52.210;21.046;2022-09-20T12:41:13;18.50;99.90
11091;DHT22;5599;52.210;21.046;2022-09-20T12:44:03;18.30;99.90
11091;DHT22;5599;52.210;21.046;2022-09-20T12:46:43;18.20;99.90
11091;DHT22;5599;52.210;21.046;2022-09-20T12:49:38;18.20;1.00
11091;DHT22;5599;52.210;21.046;2022-09-20T12:52:30;18.20;1.00
11091;DHT22;5599;52.210;21.046;2022-09-20T12:55:40;18.10;23.50
11091;DHT22;5599;52.210;21.046;2022-09-20T12:58:23;18.30;1.00
11091;DHT22;5599;52.210;21.046;2022-09-20T13:01:26;18.40;23.00
11091;DHT22;5599;52.210;21.046;2022-09-20T13:07:29;18.70;1.00
11091;DHT22;5599;52.210;21.046;2022-09-20T13:10:12;18.80;99.90
11091;DHT22;5599;52.210;21.046;2022-09-20T13:12:44;18.90;1.00
11091;DHT22;5599;52.210;21.046;2022-09-20T13:15:22;18.90;99.90
11091;DHT22;5599;52.210;21.046;2022-09-20T13:17:55;18.70;1.00
11091;DHT22;5599;52.210;21.046;2022-09-20T13:20:29;18.50;1.00
11091;DHT22;5599;52.210;21.046;2022-09-20T13:23:03;18.40;1.00
11091;DHT22;5599;52.210;21.046;2022-09-20T13:25:38;18.30;1.00
11091;DHT22;5599;52.210;21.046;2022-09-20T13:28:18;18.30;1.00
11091;DHT22;5599;52.210;21.046;2022-09-20T13:31:20;18.30;1.00
11091;DHT22;5599;52.210;21.046;2022-09-20T13:33:51;18.20;1.00
11091;DHT22;5599;52.210;21.046;2022-09-20T13:36:25;18.00;1.00
11091;DHT22;5599;52.210;21.046;2022-09-20T13:38:57;18.00;1.00
11091;DHT22;5599;52.210;21.046;2022-09-20T13:41:28;17.80;1.00
11091;DHT22;5599;52.210;21.046;2022-09-20T13:44:00;17.70;99.90
11091;DHT22;5599;52.210;21.046;2022-09-20T13:46:32;17.60;1.00
11091;DHT22;5599;52.210;21.046;2022-09-20T13:49:13;17.50;99.90
11091;DHT22;5599;52.210;21.046;2022-09-20T13:51:45;17.30;1.00
11091;DHT22;5599;52.210;21.046;2022-09-20T13:54:18;17.20;99.90
11091;DHT22;5599;52.210;21.046;2022-09-20T13:56:50;16.90;1.00
11091;DHT22;5599;52.210;21.046;2022-09-20T13:59:20;16.80;1.00
11091;DHT22;5599;52.210;21.046;2022-09-20T14:01:53;16.40;89.30
11091;DHT22;5599;52.210;21.046;2022-09-20T14:04:26;16.20;99.90
11091;DHT22;5599;52.210;21.046;2022-09-20T14:06:58;16.00;99.90
11091;DHT22;5599;52.210;21.046;2022-09-20T14:09:31;15.90;99.90
11091;DHT22;5599;52.210;21.046;2022-09-20T14:12:04;15.70;1.00
11091;DHT22;5599;52.210;21.046;2022-09-20T14:14:35;15.60;99.90
11091;DHT22;5599;52.210;21.046;2022-09-20T14:17:08;15.50;99.90
11091;DHT22;5599;52.210;21.046;2022-09-20T14:19:42;15.40;67.70
11091;DHT22;5599;52.210;21.046;2022-09-20T14:22:17;15.50;1.00
11091;DHT22;5599;52.210;21.046;2022-09-20T14:24:59;15.30;1.00
11091;DHT22;5599;52.210;21.046;2022-09-20T14:27:30;15.30;18.30
11091;DHT22;5599;52.210;21.046;2022-09-20T14:30:00;15.50;99.90
11091;DHT22;5599;52.210;21.046;2022-09-20T14:32:40;15.50;99.90
11091;DHT22;5599;52.210;21.046;2022-09-20T14:35:15;15.60;1.00
11091;DHT22;5599;52.210;21.046;2022-09-20T14:37:48;15.60;1.00
11091;DHT22;5599;52.210;21.046;2022-09-20T14:40:24;15.60;99.90
11091;DHT22;5599;52.210;21.046;2022-09-20T14:42:57;15.70;99.90
11091;DHT22;5599;52.210;21.046;2022-09-20T14:45:30;15.70;99.90
11091;DHT22;5599;52.210;21.046;2022-09-20T14:48:04;15.80;1.00
11091;DHT22;5599;52.210;21.046;2022-09-20T14:50:40;15.80;99.90
11091;DHT22;5599;52.210;21.046;2022-09-20T14:53:24;15.80;99.90
11091;DHT22;5599;52.210;21.046;2022-09-20T14:56:07;15.90;1.00
11091;DHT22;5599;52.210;21.046;2022-09-20T14:59:04;16.00;99.90
11091;DHT22;5599;52.210;21.046;2022-09-20T15:01:37;16.00;99.90
11091;DHT22;5599;52.210;21.046;2022-09-20T15:04:18;16.10;99.90
11091;DHT22;5599;52.210;21.046;2022-09-20T15:06:50;16.10;99.90
11091;DHT22;5599;52.210;21.046;2022-09-20T15:09:21;15.80;1.00
11091;DHT22;5599;52.210;21.046;2022-09-20T15:12:01;15.50;1.00
11091;DHT22;5599;52.210;21.046;2022-09-20T15:14:32;15.20;1.00
11091;DHT22;5599;52.210;21.046;2022-09-20T15:17:05;14.80;1.00
11091;DHT22;5599;52.210;21.046;2022-09-20T15:19:37;14.80;1.00
11091;DHT22;5599;52.210;21.046;2022-09-20T15:22:08;14.70;1.00
11091;DHT22;5599;52.210;21.046;2022-09-20T15:24:39;14.60;1.00
11091;DHT22;5599;52.210;21.046;2022-09-20T15:27:11;14.60;99.90
11091;DHT22;5599;52.210;21.046;2022-09-20T15:29:41;14.60;1.00
11091;DHT22;5599;52.210;21.046;2022-09-20T15:32:11;14.60;1.00
11091;DHT22;5599;52.210;21.046;2022-09-20T15:34:43;14.60;1.00
11091;DHT22;5599;52.210;21.046;2022-09-20T15:37:13;14.70;1.00
11091;DHT22;5599;52.210;21.046;2022-09-20T15:39:44;14.70;99.90
11091;DHT22;5599;52.210;21.046;2022-09-20T15:42:14;14.80;99.90
11091;DHT22;5599;52.210;21.046;2022-09-20T15:44:44;14.80;92.30
11091;DHT22;5599;52.210;21.046;2022-09-20T15:47:15;14.60;99.90
11091;DHT22;5599;52.210;21.046;2022-09-20T15:49:48;14.60;1.00
11091;DHT22;5599;52.210;21.046;2022-09-20T15:52:18;14.40;99.90
11091;DHT22;5599;52.210;21.046;2022-09-20T15:54:54;14.20;99.90
11091;DHT22;5599;52.210;21.046;2022-09-20T15:57:27;14.00;1.00
11091;DHT22;5599;52.210;21.046;2022-09-20T15:59:57;13.70;1.00
11091;DHT22;5599;52.210;21.046;2022-09-20T16:02:35;13.70;99.90
11091;DHT22;5599;52.210;21.046;2022-09-20T16:05:07;13.80;99.90
11091;DHT22;5599;52.210;21.046;2022-09-20T16:07:38;13.80;99.90
11091;DHT22;5599;52.210;21.046;2022-09-20T16:10:09;13.90;41.70
11091;DHT22;5599;52.210;21.046;2022-09-20T16:12:39;13.90;1.00
11091;DHT22;5599;52.210;21.046;2022-09-20T16:15:10;13.80;1.00
11091;DHT22;5599;52.210;21.046;2022-09-20T16:17:40;13.70;99.90
11091;DHT22;5599;52.210;21.046;2022-09-20T16:20:29;13.70;5.50
11091;DHT22;5599;52.210;21.046;2022-09-20T16:22:59;13.50;99.90
11091;DHT22;5599;52.210;21.046;2022-09-20T16:25:29;13.30;99.90
11091;DHT22;5599;52.210;21.046;2022-09-20T16:28:00;13.10;99.90
11091;DHT22;5599;52.210;21.046;2022-09-20T16:30:30;13.10;1.00
11091;DHT22;5599;52.210;21.046;2022-09-20T16:33:00;13.10;1.00
11091;DHT22;5599;52.210;21.046;2022-09-20T16:35:34;13.20;1.00
11091;DHT22;5599;52.210;21.046;2022-09-20T16:38:04;13.20;1.00
11091;DHT22;5599;52.210;21.046;2022-09-20T16:40:34;13.30;1.00
11091;DHT22;5599;52.210;21.046;2022-09-20T16:43:05;13.40;1.00
11091;DHT22;5599;52.210;21.046;2022-09-20T16:45:36;13.40;1.00
11091;DHT22;5599;52.210;21.046;2022-09-20T16:48:06;13.50;1.00
11091;DHT22;5599;52.210;21.046;2022-09-20T16:50:38;13.50;1.00
11091;DHT22;5599;52.210;21.046;2022-09-20T16:53:08;13.60;1.00
11091;DHT22;5599;52.210;21.046;2022-09-20T16:55:42;13.60;1.00
11091;DHT22;5599;52.210;21.046;2022-09-20T16:58:12;13.70;1.00
11091;DHT22;5599;52.210;21.046;2022-09-20T17:00:42;13.70;1.00
11091;DHT22;5599;52.210;21.046;2022-09-20T17:03:12;13.70;1.00
11091;DHT22;5599;52.210;21.046;2022-09-20T17:05:44;13.70;1.00
11091;DHT22;5599;52.210;21.046;2022-09-20T17:08:15;13.70;1.00
11091;DHT22;5599;52.210;21.046;2022-09-20T17:10:46;13.70;1.00
11091;DHT22;5599;52.210;21.046;2022-09-20T17:13:17;13.70;1.00
11091;DHT22;5599;52.210;21.046;2022-09-20T17:15:48;13.70;1.00
11091;DHT22;5599;52.210;21.046;2022-09-20T17:18:18;13.80;1.00
11091;DHT22;5599;52.210;21.046;2022-09-20T17:20:50;13.80;1.00
11091;DHT22;5599;52.210;21.046;2022-09-20T17:23:20;13.80;1.00